KGDV/GDV METAR and TAF weather

Enter ICAO airport designator
Station Type Date Time Source
KGDV METAR 2019/05/19 20:56 UTC NOAA

KGDV 192056Z AUTO 06010KT 10SM BKN047 OVC055 09/00 A3009 RMK AO2 SLP206 T00890000 58003


Station Type Date Time Source
KGDV Decoded METAR 2019/05/19 20:56 UTC NOAA

Glendive, Dawson Community Airport, MT, United States (KGDV) 47-08N 104-48W
May 19, 2019 - 04:56 PM EDT / 2019.05.19 2056 UTC
Wind: from the ENE (060 degrees) at 12 MPH (10 KT):0
Visibility: 10 mile(s):0
Sky conditions: overcast
Temperature: 48.0 F (8.9 C)
Dew Point: 32.0 F (0.0 C)
Relative Humidity: 53%
Pressure (altimeter): 30.09 in. Hg (1018 hPa)
Pressure tendency: 0.01 inches (0.3 hPa) lower than three hours ago
ob: KGDV 192056Z AUTO 06010KT 10SM BKN047 OVC055 09/00 A3009 RMK AO2 SLP206 T00890000 58003
cycle: 21

Station Type Date Time Source
KGDV TAF 2019/05/19 18:36 UTC NOAA

TAF KGDV 191733Z 1918/2018 06008KT P6SM BKN060
FM192300 09009KT P6SM BKN040
FM200300 VRB05KT P6SM SCT070

Example: see airport list